Time;durP1;ratioP1;P1;durP2;ratioP2;P2;SDS_P1;SDS_P2;PMS_P1;PMS_P2;Temp;Humidity;BMP_temperature;BMP_pressure;BME280_temperature;BME280_humidity;BME280_pressure;Samples;Min_cycle;Max_cycle;Signal;HPM_P1;HPM_P2
2023/05/19 00:00:59;;;;;;;1.35;0.95;;;18.30;96.70;;;;;;4970635;28;20070;-71
2023/05/19 00:03:27;;;;;;;2.78;1.13;;;18.30;96.70;;;;;;4955241;28;20050;-71
2023/05/19 00:05:57;;;;;;;1.58;1.02;;;18.30;96.70;;;;;;4963406;28;20066;-71
2023/05/19 00:08:30;;;;;;;1.27;1.00;;;18.30;96.70;;;;;;4965496;28;20210;-72
2023/05/19 00:10:59;;;;;;;2.20;1.30;;;18.10;96.70;;;;;;4947128;28;20069;-71
2023/05/19 00:13:28;;;;;;;2.10;1.05;;;18.10;96.70;;;;;;4965967;28;20073;-71
2023/05/19 00:15:56;;;;;;;1.45;1.00;;;18.00;96.70;;;;;;4944203;28;20073;-71
2023/05/19 00:18:25;;;;;;;1.33;1.08;;;18.00;96.70;;;;;;4965848;28;20042;-71
2023/05/19 00:20:53;;;;;;;2.58;0.82;;;17.90;96.70;;;;;;4966995;28;20393;-71
2023/05/19 00:23:21;;;;;;;2.13;1.20;;;17.80;96.70;;;;;;4950085;28;20094;-71
2023/05/19 00:25:52;;;;;;;3.80;1.30;;;18.00;96.70;;;;;;4964490;28;20054;-71
2023/05/19 00:28:20;;;;;;;1.92;1.13;;;18.00;96.70;;;;;;4962615;28;20515;-71
2023/05/19 00:30:50;;;;;;;2.50;1.33;;;18.00;96.70;;;;;;4947222;28;20134;-71
2023/05/19 00:33:56;;;;;;;1.85;1.05;;;18.00;96.70;;;;;;4940415;28;20561;-72
2023/05/19 00:36:25;;;;;;;2.28;0.90;;;17.90;96.70;;;;;;4946011;28;20124;-71
2023/05/19 00:38:53;;;;;;;3.88;1.00;;;17.90;96.70;;;;;;4946971;28;20047;-72
2023/05/19 00:41:23;;;;;;;2.00;0.93;;;17.90;96.70;;;;;;4963090;28;20039;-72
2023/05/19 00:43:52;;;;;;;1.63;1.05;;;18.00;96.70;;;;;;4963770;28;20090;-71
2023/05/19 00:46:21;;;;;;;2.53;1.10;;;18.10;96.70;;;;;;4962517;28;20039;-71
2023/05/19 00:57:19;;;;;;;2.78;1.00;;;17.80;96.70;;;;;;4961198;28;20424;-72
2023/05/19 00:59:47;;;;;;;2.08;1.10;;;17.80;96.70;;;;;;4949926;28;20386;-71
2023/05/19 01:02:16;;;;;;;3.05;1.23;;;17.90;96.70;;;;;;4945873;28;20046;-71
2023/05/19 01:04:46;;;;;;;1.30;1.00;;;17.90;96.70;;;;;;4947493;28;20057;-72
2023/05/19 01:07:15;;;;;;;2.22;1.40;;;17.70;96.70;;;;;;4957287;28;20061;-71
2023/05/19 01:10:20;;;;;;;1.95;0.90;;;17.50;96.70;;;;;;4962546;28;20492;-71
2023/05/19 01:12:52;;;;;;;3.13;1.77;;;17.30;96.70;;;;;;4963468;28;20626;-71
2023/05/19 01:15:21;;;;;;;2.50;1.02;;;17.00;96.70;;;;;;4961927;28;20421;-71
2023/05/19 01:17:57;;;;;;;3.63;1.30;;;16.90;96.70;;;;;;4958295;28;20039;-71
2023/05/19 02:30:18;;;;;;;1.90;1.10;;;17.10;96.70;;;;;;4934882;28;20292;-71
2023/05/19 02:32:47;;;;;;;3.30;1.17;;;17.20;96.70;;;;;;4959512;28;20078;-71
2023/05/19 02:35:16;;;;;;;1.38;1.10;;;17.20;96.70;;;;;;4943595;29;20043;-71
2023/05/19 02:37:44;;;;;;;2.10;1.20;;;17.20;96.70;;;;;;4937985;29;20286;-71
2023/05/19 03:39:35;;;;;;;2.45;0.95;;;16.50;96.70;;;;;;4961757;28;20069;-71
2023/05/19 03:42:04;;;;;;;2.00;0.90;;;16.60;96.70;;;;;;4947171;28;20323;-72
2023/05/19 03:44:32;;;;;;;1.80;1.13;;;16.60;96.70;;;;;;4961554;28;20059;-71
2023/05/19 03:47:00;;;;;;;2.15;0.95;;;16.60;96.70;;;;;;4927219;28;20142;-71
2023/05/19 03:49:46;;;;;;;3.38;1.35;;;16.60;96.70;;;;;;4965887;28;20049;-72
2023/05/19 03:52:47;;;;;;;2.55;1.23;;;16.60;96.70;;;;;;4942982;28;20051;-70
2023/05/19 03:55:29;;;;;;;1.38;1.08;;;16.70;96.70;;;;;;4959628;28;20047;-70
2023/05/19 03:57:57;;;;;;;3.08;1.75;;;16.70;96.70;;;;;;4946582;28;20417;-70
2023/05/19 04:00:25;;;;;;;1.65;1.27;;;16.70;96.70;;;;;;4944763;28;20043;-70
2023/05/19 04:15:36;;;;;;;3.03;1.50;;;16.60;96.70;;;;;;4965159;28;20057;-70
2023/05/19 04:18:05;;;;;;;1.55;1.15;;;16.60;96.70;;;;;;4963919;28;20054;-70
2023/05/19 04:20:33;;;;;;;3.90;1.42;;;16.60;96.70;;;;;;4964551;28;20050;-70
2023/05/19 04:23:03;;;;;;;3.50;1.55;;;16.60;96.70;;;;;;4945006;28;20178;-70
2023/05/19 04:25:32;;;;;;;2.95;1.35;;;16.60;96.70;;;;;;4961790;28;20047;-70
2023/05/19 04:44:30;;;;;;;1.77;1.30;;;16.60;96.70;;;;;;4945900;28;20066;-70
2023/05/19 04:46:59;;;;;;;1.58;1.48;;;16.60;96.70;;;;;;4945937;28;20487;-70
2023/05/19 04:49:28;;;;;;;1.92;1.45;;;16.60;96.70;;;;;;4959044;28;20554;-70
2023/05/19 04:51:57;;;;;;;2.00;1.20;;;16.70;96.70;;;;;;4963057;28;20046;-70
2023/05/19 04:54:30;;;;;;;1.88;1.60;;;16.70;96.70;;;;;;4953124;28;20041;-70
2023/05/19 04:56:59;;;;;;;2.60;1.58;;;16.60;96.70;;;;;;4937802;28;20051;-70
2023/05/19 04:59:32;;;;;;;3.00;1.45;;;16.70;96.70;;;;;;4925652;28;20042;-70
2023/05/19 05:02:01;;;;;;;1.92;1.00;;;16.70;96.70;;;;;;4962406;28;20150;-70
2023/05/19 05:04:31;;;;;;;4.75;1.63;;;16.70;96.70;;;;;;4953365;28;20802;-70
2023/05/19 05:07:00;;;;;;;2.30;1.35;;;16.70;96.70;;;;;;4963984;28;20405;-70
2023/05/19 05:09:29;;;;;;;2.83;1.48;;;16.70;96.70;;;;;;4944199;28;20054;-69
2023/05/19 05:12:01;;;;;;;1.73;1.30;;;16.70;96.70;;;;;;4959464;28;20478;-70
2023/05/19 05:14:32;;;;;;;2.10;1.45;;;16.80;96.70;;;;;;4940910;28;20043;-70
2023/05/19 05:17:01;;;;;;;2.30;1.58;;;16.80;96.70;;;;;;4965843;28;20043;-70
2023/05/19 05:19:32;;;;;;;3.55;1.55;;;16.90;96.70;;;;;;4945367;28;20039;-70
2023/05/19 05:22:02;;;;;;;1.80;1.40;;;16.90;96.70;;;;;;4951056;28;20078;-70
2023/05/19 05:24:31;;;;;;;2.25;1.70;;;16.80;96.70;;;;;;4945546;28;20065;-70
2023/05/19 05:27:04;;;;;;;2.58;1.60;;;16.90;96.70;;;;;;4929141;28;20149;-70
2023/05/19 05:29:35;;;;;;;2.15;1.80;;;16.90;96.70;;;;;;4946421;28;20054;-70
2023/05/19 05:32:06;;;;;;;1.67;1.55;;;16.90;96.70;;;;;;4953008;28;20109;-70
2023/05/19 05:34:38;;;;;;;2.47;1.70;;;17.00;96.70;;;;;;4963124;28;20066;-70
2023/05/19 05:37:07;;;;;;;2.70;1.70;;;17.00;96.70;;;;;;4929018;28;20082;-70
2023/05/19 05:39:36;;;;;;;2.30;1.73;;;17.00;96.70;;;;;;4956835;28;20082;-70
2023/05/19 05:42:07;;;;;;;1.80;1.48;;;16.90;96.70;;;;;;4952415;28;20110;-70
2023/05/19 05:44:39;;;;;;;2.42;1.52;;;17.00;96.70;;;;;;4947212;28;20480;-70
2023/05/19 05:47:11;;;;;;;4.32;1.88;;;17.10;96.70;;;;;;4942657;28;20417;-70
2023/05/19 05:49:40;;;;;;;2.47;2.00;;;17.10;96.70;;;;;;4956249;28;20046;-70
2023/05/19 05:52:11;;;;;;;2.70;2.20;;;17.10;96.70;;;;;;4944842;28;20141;-70
2023/05/19 05:54:46;;;;;;;2.42;1.60;;;17.10;96.70;;;;;;4955192;28;20082;-70
2023/05/19 05:57:18;;;;;;;2.80;1.75;;;17.10;96.70;;;;;;4945771;28;20051;-70
2023/05/19 05:59:49;;;;;;;1.67;1.50;;;17.10;96.70;;;;;;4962284;28;20061;-70
2023/05/19 06:02:18;;;;;;;2.97;1.80;;;17.00;96.70;;;;;;4931452;28;20065;-70
2023/05/19 06:04:47;;;;;;;2.13;1.58;;;17.00;96.70;;;;;;4965360;28;20047;-70
2023/05/19 06:07:17;;;;;;;3.63;1.23;;;17.00;96.70;;;;;;4936100;28;20046;-70
2023/05/19 06:09:46;;;;;;;2.58;1.50;;;17.20;96.70;;;;;;4966707;28;20055;-70
2023/05/19 06:12:15;;;;;;;3.25;1.58;;;17.20;96.70;;;;;;4947875;28;20046;-70
2023/05/19 06:14:50;;;;;;;1.75;1.33;;;17.10;96.70;;;;;;4951132;28;20469;-70
2023/05/19 06:17:38;;;;;;;1.58;1.45;;;17.10;96.70;;;;;;4964331;28;20054;-70
2023/05/19 06:20:08;;;;;;;3.03;1.60;;;17.20;96.70;;;;;;4956985;28;20423;-70
2023/05/19 06:22:37;;;;;;;1.63;1.27;;;17.30;96.70;;;;;;4967934;28;20051;-70
2023/05/19 06:25:08;;;;;;;1.73;1.35;;;17.30;96.70;;;;;;4955043;28;20066;-70
2023/05/19 06:27:37;;;;;;;3.05;2.05;;;17.40;96.70;;;;;;4947528;28;20068;-70
2023/05/19 06:30:08;;;;;;;2.47;1.63;;;17.40;96.70;;;;;;4951529;28;20129;-70
2023/05/19 06:32:48;;;;;;;5.43;2.03;;;17.40;96.70;;;;;;4963474;28;20047;-70
2023/05/19 06:35:17;;;;;;;4.95;2.17;;;17.40;96.70;;;;;;4961635;28;20141;-70
2023/05/19 06:37:46;;;;;;;2.50;1.70;;;17.40;96.70;;;;;;4966228;28;20041;-70
2023/05/19 06:40:15;;;;;;;1.92;1.60;;;17.50;96.70;;;;;;4959957;28;20051;-70
2023/05/19 06:42:44;;;;;;;4.43;2.03;;;17.40;96.70;;;;;;4946737;28;20058;-70
2023/05/19 06:45:20;;;;;;;2.70;1.92;;;17.40;96.70;;;;;;4933919;28;20169;-70
2023/05/19 06:47:51;;;;;;;4.03;2.22;;;17.30;96.70;;;;;;4955310;28;20042;-71
2023/05/19 06:50:20;;;;;;;3.90;2.53;;;17.40;96.70;;;;;;4966602;28;20572;-70
2023/05/19 06:52:49;;;;;;;3.33;2.10;;;17.50;96.70;;;;;;4962585;28;20611;-70
2023/05/19 06:55:18;;;;;;;3.60;2.10;;;17.40;96.70;;;;;;4945316;28;20096;-72
2023/05/19 06:57:49;;;;;;;5.45;2.78;;;17.50;96.70;;;;;;4951279;28;20050;-71
2023/05/19 07:00:21;;;;;;;3.40;2.33;;;17.50;96.70;;;;;;4974694;28;20049;-71
2023/05/19 07:02:53;;;;;;;5.68;3.00;;;17.60;96.70;;;;;;4976373;28;20142;-70
2023/05/19 07:05:22;;;;;;;5.35;3.05;;;17.60;96.70;;;;;;4978107;28;20046;-70
2023/05/19 07:07:55;;;;;;;6.05;2.75;;;17.50;96.70;;;;;;4958971;28;20047;-72
2023/05/19 07:10:27;;;;;;;5.68;2.63;;;17.60;96.70;;;;;;4946945;28;20071;-70
2023/05/19 07:12:57;;;;;;;3.88;1.80;;;17.70;96.70;;;;;;4945841;28;20477;-72
2023/05/19 07:15:32;;;;;;;4.13;2.28;;;17.80;96.70;;;;;;4949304;28;20761;-71
2023/05/19 07:18:01;;;;;;;3.65;2.03;;;17.80;96.70;;;;;;4934653;28;20094;-70
2023/05/19 07:20:30;;;;;;;3.03;1.92;;;17.70;96.70;;;;;;4964500;28;20035;-70
2023/05/19 07:23:01;;;;;;;3.85;2.03;;;17.80;96.70;;;;;;4933027;28;20059;-70
2023/05/19 07:25:30;;;;;;;2.10;1.90;;;17.80;96.70;;;;;;4932731;28;20442;-70
2023/05/19 07:27:59;;;;;;;5.47;1.92;;;17.80;96.70;;;;;;4977835;28;20093;-70
2023/05/19 07:30:28;;;;;;;3.47;1.90;;;17.80;96.70;;;;;;4952974;28;20053;-69
2023/05/19 07:32:59;;;;;;;2.42;1.77;;;17.80;96.70;;;;;;4969858;28;20035;-70
2023/05/19 07:35:28;;;;;;;2.83;1.90;;;17.80;96.70;;;;;;4976322;28;20411;-70
2023/05/19 07:37:56;;;;;;;3.30;2.10;;;17.80;96.70;;;;;;4974713;28;20039;-71
2023/05/19 07:40:25;;;;;;;2.15;1.40;;;17.80;96.70;;;;;;4970006;28;20102;-69
2023/05/19 07:42:53;;;;;;;2.05;1.45;;;17.80;96.70;;;;;;4964710;28;20066;-69
2023/05/19 07:45:22;;;;;;;3.60;2.20;;;17.80;96.70;;;;;;4968217;28;20153;-70
2023/05/19 07:47:52;;;;;;;2.67;1.60;;;17.80;96.70;;;;;;4951735;28;20042;-70
2023/05/19 07:50:22;;;;;;;1.85;1.63;;;17.90;96.70;;;;;;4962268;28;20050;-70
2023/05/19 07:52:51;;;;;;;2.35;1.40;;;17.90;96.70;;;;;;4947935;28;20039;-70
2023/05/19 07:55:21;;;;;;;2.42;1.60;;;17.90;96.70;;;;;;4947156;28;20046;-69
2023/05/19 07:57:50;;;;;;;3.38;1.40;;;17.90;96.70;;;;;;4970576;28;20061;-69
2023/05/19 08:00:23;;;;;;;2.42;1.60;;;17.90;96.70;;;;;;4966704;28;20046;-70
2023/05/19 08:03:23;;;;;;;2.25;1.40;;;17.90;96.70;;;;;;4907365;29;20118;-70
2023/05/19 08:06:08;;;;;;;2.10;1.42;;;17.90;96.70;;;;;;4909523;29;20110;-70
2023/05/19 08:08:36;;;;;;;2.22;1.33;;;18.00;96.70;;;;;;4911735;29;20119;-69
2023/05/19 08:11:05;;;;;;;1.73;1.25;;;18.00;96.70;;;;;;4897596;29;20727;-69
2023/05/19 08:13:33;;;;;;;3.20;1.55;;;18.00;96.70;;;;;;4905733;29;20040;-70
2023/05/19 08:16:01;;;;;;;2.42;1.23;;;18.10;96.70;;;;;;4913036;29;20055;-70
2023/05/19 08:18:30;;;;;;;1.40;1.23;;;18.10;96.70;;;;;;4906045;29;20071;-71
2023/05/19 08:20:58;;;;;;;2.35;1.30;;;18.20;96.70;;;;;;4913811;29;20063;-70
2023/05/19 08:23:28;;;;;;;1.55;1.30;;;18.20;96.70;;;;;;4916370;29;20066;-69
2023/05/19 08:25:57;;;;;;;2.35;1.42;;;18.20;96.70;;;;;;4921713;29;20146;-70
2023/05/19 08:28:25;;;;;;;1.60;1.33;;;18.20;96.70;;;;;;4916010;29;20067;-70
2023/05/19 08:30:53;;;;;;;2.00;1.48;;;18.20;96.70;;;;;;4907227;29;20059;-70
2023/05/19 08:33:21;;;;;;;2.17;1.33;;;18.20;96.70;;;;;;4913842;29;20718;-71
2023/05/19 08:35:50;;;;;;;1.45;1.20;;;18.20;96.70;;;;;;4920318;29;20072;-71
2023/05/19 08:38:18;;;;;;;4.05;1.48;;;18.20;96.70;;;;;;4916522;29;20055;-70
2023/05/19 08:40:48;;;;;;;2.53;1.10;;;18.20;96.70;;;;;;4947460;28;20058;-70
2023/05/19 08:43:16;;;;;;;2.03;1.42;;;18.30;96.70;;;;;;4967233;28;20062;-70
2023/05/19 08:45:48;;;;;;;1.77;1.38;;;18.40;96.70;;;;;;4980539;28;20459;-70
2023/05/19 08:48:18;;;;;;;1.88;1.30;;;18.40;96.70;;;;;;4965422;28;20051;-69
2023/05/19 08:50:55;;;;;;;2.45;1.45;;;18.60;96.70;;;;;;4959720;28;20051;-70
2023/05/19 08:53:30;;;;;;;1.50;1.40;;;18.70;96.70;;;;;;4947450;28;20047;-70
2023/05/19 08:56:10;;;;;;;2.92;1.42;;;18.80;96.70;;;;;;4963956;28;20457;-70
2023/05/19 08:58:41;;;;;;;3.95;1.70;;;18.80;96.70;;;;;;4971304;28;20055;-71
2023/05/19 09:01:12;;;;;;;1.48;1.17;;;18.80;96.70;;;;;;4959423;28;20512;-71
2023/05/19 09:03:42;;;;;;;2.17;1.23;;;18.80;96.70;;;;;;4964523;28;20507;-71
2023/05/19 09:06:13;;;;;;;2.20;1.30;;;18.70;96.70;;;;;;4972320;28;20077;-71
2023/05/19 09:08:42;;;;;;;1.40;0.98;;;18.70;96.70;;;;;;4957418;28;20069;-70
2023/05/19 09:11:12;;;;;;;1.92;1.52;;;18.70;96.70;;;;;;4968625;28;20120;-70
2023/05/19 09:13:40;;;;;;;1.63;1.17;;;18.70;96.70;;;;;;4962386;28;20042;-69
2023/05/19 09:16:10;;;;;;;3.53;1.33;;;18.80;96.70;;;;;;4947647;28;20424;-72
2023/05/19 09:18:39;;;;;;;1.55;1.10;;;18.80;96.70;;;;;;4967994;28;20094;-72
2023/05/19 09:21:09;;;;;;;1.38;0.93;;;18.90;96.70;;;;;;4942957;28;20042;-70
2023/05/19 09:23:38;;;;;;;1.73;1.13;;;18.90;96.70;;;;;;4959955;28;20058;-71
2023/05/19 09:26:06;;;;;;;1.85;1.50;;;19.00;96.70;;;;;;4973534;28;20053;-72
2023/05/19 09:28:37;;;;;;;2.53;1.13;;;19.00;96.70;;;;;;4963222;28;20050;-70
2023/05/19 09:31:06;;;;;;;2.83;1.60;;;19.00;96.70;;;;;;4966255;28;20039;-69
2023/05/19 09:33:36;;;;;;;3.28;2.72;;;19.10;96.70;;;;;;4961634;28;20407;-70
2023/05/19 09:36:07;;;;;;;1.92;1.45;;;19.10;96.70;;;;;;4979349;28;20512;-70
2023/05/19 09:38:36;;;;;;;2.88;1.40;;;19.10;96.70;;;;;;4970351;28;20073;-70
2023/05/19 09:41:05;;;;;;;2.08;1.27;;;19.10;96.70;;;;;;4981517;28;20039;-71
2023/05/19 09:43:36;;;;;;;1.52;1.10;;;19.00;96.70;;;;;;4930709;28;20106;-70
2023/05/19 09:46:05;;;;;;;6.57;1.27;;;19.00;96.70;;;;;;4966510;28;20054;-70
2023/05/19 09:48:35;;;;;;;1.38;0.90;;;19.00;96.70;;;;;;4977192;28;20051;-70
2023/05/19 09:51:06;;;;;;;1.92;0.88;;;19.00;96.70;;;;;;4977711;28;20515;-71
2023/05/19 09:53:35;;;;;;;5.00;1.45;;;18.90;96.70;;;;;;4962113;28;20054;-70
2023/05/19 09:56:04;;;;;;;3.08;1.00;;;18.90;96.70;;;;;;4980523;28;20515;-70
2023/05/19 09:58:35;;;;;;;1.95;0.93;;;18.90;96.70;;;;;;4974193;28;20038;-71
2023/05/19 10:01:06;;;;;;;1.38;1.02;;;19.00;96.70;;;;;;4965434;28;20054;-70
2023/05/19 10:03:35;;;;;;;3.63;1.30;;;19.00;96.70;;;;;;4950129;28;20607;-70
2023/05/19 10:06:05;;;;;;;1.83;1.00;;;19.10;96.70;;;;;;4949068;28;20527;-71
2023/05/19 10:08:35;;;;;;;1.40;0.90;;;19.10;96.70;;;;;;4953824;28;20048;-70
2023/05/19 10:11:05;;;;;;;1.52;0.95;;;19.20;96.70;;;;;;4966384;28;20086;-70
2023/05/19 10:13:37;;;;;;;3.22;0.90;;;19.20;96.70;;;;;;4964429;28;20125;-70
2023/05/19 10:16:08;;;;;;;1.70;1.00;;;19.20;96.70;;;;;;4963748;28;20533;-71
2023/05/19 10:18:38;;;;;;;1.50;1.02;;;19.30;96.70;;;;;;4964219;28;20051;-71
2023/05/19 10:21:08;;;;;;;1.42;1.30;;;19.30;96.70;;;;;;4963681;28;20058;-70
2023/05/19 10:23:36;;;;;;;1.50;1.00;;;19.30;96.70;;;;;;4946838;28;20047;-71
2023/05/19 10:26:05;;;;;;;1.52;1.17;;;19.40;96.70;;;;;;4964012;28;20074;-71
2023/05/19 10:28:38;;;;;;;1.33;0.82;;;19.30;96.70;;;;;;4970581;28;20046;-71
2023/05/19 10:31:12;;;;;;;1.80;1.00;;;19.30;96.70;;;;;;4948849;28;20489;-70
2023/05/19 10:33:55;;;;;;;1.10;0.80;;;19.10;96.70;;;;;;4924560;28;20066;-71
2023/05/19 10:36:37;;;;;;;1.05;0.85;;;19.00;96.70;;;;;;4969776;28;20468;-70
2023/05/19 10:39:12;;;;;;;0.75;0.55;;;19.00;96.70;;;;;;4946560;28;20820;-70
2023/05/19 10:41:50;;;;;;;1.70;0.70;;;19.00;96.70;;;;;;4967301;28;20049;-71
2023/05/19 10:44:30;;;;;;;0.70;0.50;;;19.00;96.70;;;;;;4978438;28;20076;-70
2023/05/19 10:47:00;;;;;;;0.90;0.60;;;18.90;96.70;;;;;;4982872;28;20884;-70
2023/05/19 10:49:33;;;;;;;1.70;0.90;;;18.90;96.70;;;;;;4964811;28;20481;-71
2023/05/19 10:52:01;;;;;;;1.42;0.80;;;18.90;96.70;;;;;;4970493;28;20463;-70
2023/05/19 10:54:45;;;;;;;1.10;0.77;;;18.90;96.70;;;;;;4971523;28;20370;-71
2023/05/19 10:57:15;;;;;;;0.95;0.75;;;19.00;96.70;;;;;;4966848;28;20508;-70
2023/05/19 10:59:43;;;;;;;1.13;0.70;;;19.10;96.70;;;;;;4960457;28;20050;-71
2023/05/19 11:02:38;;;;;;;1.30;0.70;;;19.20;96.70;;;;;;4973793;28;20039;-70
2023/05/19 11:05:11;;;;;;;1.85;0.93;;;19.20;96.70;;;;;;4958952;28;20129;-70
2023/05/19 11:07:43;;;;;;;1.25;0.70;;;19.30;96.70;;;;;;4956540;28;20413;-70
2023/05/19 11:10:12;;;;;;;1.83;0.93;;;19.50;96.70;;;;;;4965484;28;20183;-70
2023/05/19 11:12:42;;;;;;;0.85;0.68;;;19.60;96.70;;;;;;4967255;28;20067;-71
2023/05/19 11:15:12;;;;;;;3.50;0.80;;;19.70;96.70;;;;;;4966825;28;20134;-71
2023/05/19 11:17:47;;;;;;;1.10;0.68;;;19.80;96.70;;;;;;4946118;28;20054;-70
2023/05/19 11:20:25;;;;;;;0.50;0.50;;;19.90;96.70;;;;;;4966757;28;20489;-70
2023/05/19 11:23:06;;;;;;;0.82;0.40;;;19.90;96.70;;;;;;4967106;28;20054;-70
2023/05/19 11:25:48;;;;;;;0.88;0.45;;;20.00;96.70;;;;;;4974710;28;20053;-71
2023/05/19 11:28:18;;;;;;;1.00;0.57;;;20.10;96.70;;;;;;4939340;28;20497;-70
2023/05/19 11:30:50;;;;;;;0.38;0.30;;;20.20;96.70;;;;;;4956107;28;20058;-71
2023/05/19 11:33:25;;;;;;;0.70;0.40;;;20.30;96.70;;;;;;4973764;28;20538;-70
2023/05/19 11:35:58;;;;;;;0.50;0.50;;;20.30;96.70;;;;;;4958885;28;20050;-70
2023/05/19 11:38:28;;;;;;;1.02;0.57;;;20.30;96.70;;;;;;4967867;28;20286;-71
2023/05/19 11:40:57;;;;;;;0.52;0.30;;;20.30;96.70;;;;;;4970056;28;20047;-70
2023/05/19 11:43:25;;;;;;;0.73;0.50;;;20.20;96.70;;;;;;4974561;28;20059;-71
2023/05/19 11:45:54;;;;;;;0.73;0.45;;;20.20;96.70;;;;;;4966486;28;20509;-71
2023/05/19 11:48:25;;;;;;;0.75;0.38;;;20.10;96.70;;;;;;4974293;28;20046;-70
2023/05/19 11:50:55;;;;;;;0.60;0.50;;;20.00;96.70;;;;;;4976803;28;20143;-70
2023/05/19 11:53:24;;;;;;;0.88;0.45;;;19.90;96.70;;;;;;4980628;28;20108;-70
2023/05/19 11:55:52;;;;;;;0.75;0.50;;;19.90;96.70;;;;;;4952147;28;20043;-70
2023/05/19 11:58:26;;;;;;;0.50;0.40;;;19.90;96.70;;;;;;4948373;28;20112;-72
2023/05/19 12:00:55;;;;;;;1.13;0.40;;;19.70;96.70;;;;;;4966001;28;20073;-70
2023/05/19 12:03:27;;;;;;;2.70;0.77;;;19.70;96.70;;;;;;4974422;28;20093;-71
2023/05/19 12:05:55;;;;;;;0.80;0.50;;;19.60;96.70;;;;;;4970550;28;20133;-70
2023/05/19 12:08:24;;;;;;;2.30;0.60;;;19.60;96.70;;;;;;4966146;28;20528;-70
2023/05/19 12:10:52;;;;;;;1.13;0.63;;;19.70;96.70;;;;;;4967601;28;20047;-71
2023/05/19 12:13:21;;;;;;;1.27;0.90;;;19.80;96.70;;;;;;4964982;28;21006;-70
2023/05/19 12:15:50;;;;;;;1.00;0.80;;;19.90;96.70;;;;;;4948747;28;20571;-71
2023/05/19 12:18:19;;;;;;;0.90;0.50;;;19.90;96.70;;;;;;4965681;28;20492;-71
2023/05/19 12:20:49;;;;;;;2.03;0.50;;;19.90;96.70;;;;;;4962681;28;20501;-71
2023/05/19 12:23:17;;;;;;;0.82;0.63;;;19.90;96.70;;;;;;4974190;28;20053;-70
2023/05/19 12:25:46;;;;;;;0.40;0.32;;;20.00;96.70;;;;;;4965099;28;20046;-70
2023/05/19 12:28:15;;;;;;;0.60;0.25;;;20.00;96.70;;;;;;4965596;28;20985;-70
2023/05/19 12:30:47;;;;;;;0.93;0.30;;;20.00;96.70;;;;;;4974697;28;20050;-71
2023/05/19 12:33:15;;;;;;;0.50;0.40;;;19.90;96.70;;;;;;4983434;28;20050;-70
2023/05/19 12:35:44;;;;;;;0.75;0.45;;;20.10;96.70;;;;;;4982597;28;20042;-71
2023/05/19 12:38:15;;;;;;;0.30;0.30;;;20.20;96.70;;;;;;4982979;28;20057;-70
2023/05/19 12:40:43;;;;;;;0.50;0.40;;;20.30;96.70;;;;;;4955718;28;21243;-71
2023/05/19 12:43:19;;;;;;;2.05;1.20;;;20.50;96.70;;;;;;4966287;28;20058;-70
2023/05/19 12:45:48;;;;;;;0.82;0.40;;;20.60;96.70;;;;;;4968236;28;20089;-70
2023/05/19 12:48:16;;;;;;;1.42;0.57;;;20.70;96.70;;;;;;4972369;28;20047;-70
2023/05/19 12:50:45;;;;;;;1.23;0.40;;;20.80;96.70;;;;;;4956302;28;20516;-72
2023/05/19 12:53:15;;;;;;;0.70;0.30;;;20.80;96.70;;;;;;4947939;28;20078;-71
2023/05/19 12:55:44;;;;;;;0.50;0.30;;;20.90;96.70;;;;;;4965879;28;20062;-71
2023/05/19 12:58:12;;;;;;;1.20;0.60;;;21.00;96.70;;;;;;4964738;28;20599;-71
2023/05/19 13:00:42;;;;;;;1.45;0.80;;;21.00;96.70;;;;;;4975614;28;20247;-71
2023/05/19 13:03:15;;;;;;;1.98;1.25;;;21.10;96.70;;;;;;4981569;28;20050;-71
2023/05/19 13:05:45;;;;;;;1.65;1.13;;;21.10;96.70;;;;;;4971750;28;20116;-70
2023/05/19 13:08:16;;;;;;;1.10;0.73;;;21.20;96.70;;;;;;4971516;28;20050;-71
2023/05/19 13:10:45;;;;;;;1.73;0.70;;;21.10;96.70;;;;;;4973244;28;20539;-71
2023/05/19 13:13:13;;;;;;;0.65;0.55;;;21.10;96.70;;;;;;4974517;28;20094;-71
2023/05/19 13:15:43;;;;;;;1.08;0.75;;;21.10;96.70;;;;;;4983455;28;20042;-70
2023/05/19 13:18:13;;;;;;;1.45;0.73;;;21.00;96.70;;;;;;4977504;28;20050;-71
2023/05/19 13:20:42;;;;;;;0.70;0.50;;;20.90;96.70;;;;;;4979252;28;20047;-71
2023/05/19 13:23:11;;;;;;;1.95;0.40;;;20.80;96.70;;;;;;4966155;28;20046;-70
2023/05/19 13:25:41;;;;;;;0.80;0.40;;;20.80;96.70;;;;;;4957056;28;20155;-71
2023/05/19 13:28:09;;;;;;;1.45;0.40;;;20.90;96.70;;;;;;4947863;28;20050;-70
2023/05/19 13:30:40;;;;;;;0.75;0.50;;;20.90;96.70;;;;;;4969870;28;20053;-71
2023/05/19 13:33:08;;;;;;;1.83;0.50;;;20.80;96.70;;;;;;4983289;28;20060;-70
2023/05/19 13:35:37;;;;;;;1.90;0.50;;;20.80;96.70;;;;;;4982836;28;20100;-70
2023/05/19 13:38:08;;;;;;;1.05;0.50;;;20.80;96.70;;;;;;4983181;28;20053;-70
2023/05/19 13:40:38;;;;;;;1.48;0.43;;;20.80;96.70;;;;;;4956767;28;20050;-71
2023/05/19 13:43:08;;;;;;;1.73;0.60;;;20.90;96.70;;;;;;4982899;28;20082;-70
2023/05/19 13:45:36;;;;;;;0.63;0.50;;;20.80;96.70;;;;;;4978174;28;20070;-71
2023/05/19 13:48:06;;;;;;;0.63;0.50;;;20.80;96.70;;;;;;4983103;28;20038;-71
2023/05/19 13:50:34;;;;;;;1.30;0.50;;;20.80;96.70;;;;;;4959746;28;20133;-71
2023/05/19 13:53:02;;;;;;;0.80;0.40;;;20.70;96.70;;;;;;4958978;28;20084;-71
2023/05/19 13:55:31;;;;;;;1.17;0.40;;;20.60;96.70;;;;;;4954470;28;20058;-71
2023/05/19 13:57:59;;;;;;;2.50;0.47;;;20.50;96.70;;;;;;4964400;28;20053;-71
2023/05/19 14:00:29;;;;;;;1.20;0.50;;;20.40;96.70;;;;;;4978501;28;20034;-70
2023/05/19 14:02:59;;;;;;;2.10;0.60;;;20.20;96.70;;;;;;4981213;28;21227;-71
2023/05/19 14:05:27;;;;;;;0.90;0.50;;;20.10;96.70;;;;;;4981753;28;20040;-71
2023/05/19 14:07:56;;;;;;;0.70;0.50;;;19.90;96.70;;;;;;4967500;28;20445;-70
2023/05/19 14:10:25;;;;;;;0.57;0.30;;;19.80;96.70;;;;;;4970400;28;20114;-71
2023/05/19 14:12:53;;;;;;;2.95;0.60;;;19.80;96.70;;;;;;4964071;28;20066;-70
2023/05/19 14:15:43;;;;;;;0.88;0.55;;;19.80;96.70;;;;;;4963776;28;20046;-71
2023/05/19 14:18:11;;;;;;;1.05;0.40;;;19.70;96.70;;;;;;4949178;28;20051;-71
2023/05/19 14:20:39;;;;;;;0.52;0.43;;;19.70;96.70;;;;;;4927468;29;20047;-71
2023/05/19 14:23:07;;;;;;;2.10;0.47;;;19.70;96.70;;;;;;4960231;28;20134;-70
2023/05/19 14:25:35;;;;;;;1.13;0.60;;;19.70;96.70;;;;;;4972398;28;20038;-70
2023/05/19 14:28:04;;;;;;;2.20;0.95;;;19.70;96.70;;;;;;4984797;28;20069;-70
2023/05/19 14:30:32;;;;;;;4.72;1.10;;;19.60;96.70;;;;;;4973299;28;20393;-70
2023/05/19 14:33:02;;;;;;;0.75;0.30;;;19.70;96.70;;;;;;4986435;28;20061;-70
2023/05/19 14:35:31;;;;;;;1.73;0.40;;;19.70;96.70;;;;;;4955333;28;20050;-71
2023/05/19 14:37:59;;;;;;;0.68;0.35;;;19.80;96.70;;;;;;4967881;28;20047;-71
2023/05/19 14:40:27;;;;;;;0.60;0.52;;;19.80;96.70;;;;;;4962630;28;20047;-71
2023/05/19 14:42:55;;;;;;;0.50;0.30;;;19.80;96.70;;;;;;4985002;28;20145;-70
2023/05/19 14:45:23;;;;;;;1.55;0.35;;;19.90;96.70;;;;;;4982748;28;20061;-70
2023/05/19 14:47:51;;;;;;;1.40;0.40;;;20.00;96.70;;;;;;4966333;28;20144;-71
2023/05/19 14:50:21;;;;;;;1.63;0.47;;;20.00;96.70;;;;;;4963803;28;20047;-71
2023/05/19 14:52:49;;;;;;;1.63;0.40;;;20.00;96.70;;;;;;4967541;28;20455;-71
2023/05/19 14:55:17;;;;;;;0.90;0.30;;;20.00;96.70;;;;;;4949206;28;20078;-70
2023/05/19 14:57:45;;;;;;;2.03;0.40;;;20.00;96.70;;;;;;4958795;28;20413;-71
2023/05/19 15:00:14;;;;;;;1.85;0.60;;;20.00;96.70;;;;;;4985213;28;20046;-71
2023/05/19 15:02:42;;;;;;;0.90;0.35;;;19.90;96.70;;;;;;4986213;28;20538;-71
2023/05/19 15:05:10;;;;;;;2.17;0.30;;;19.90;96.70;;;;;;4986064;28;20065;-71
2023/05/19 15:07:40;;;;;;;2.50;0.30;;;19.80;96.70;;;;;;4968083;28;20042;-70
2023/05/19 15:10:08;;;;;;;1.20;0.25;;;19.80;96.70;;;;;;4976165;28;20253;-70
2023/05/19 15:12:37;;;;;;;0.73;0.30;;;19.80;96.70;;;;;;4985707;28;20047;-71
2023/05/19 15:15:06;;;;;;;1.10;0.30;;;19.80;96.70;;;;;;4977222;28;20049;-71
2023/05/19 15:17:34;;;;;;;0.68;0.28;;;19.70;96.70;;;;;;4962154;28;20474;-70
2023/05/19 15:20:02;;;;;;;0.95;0.20;;;19.70;96.70;;;;;;4979268;28;20042;-70
2023/05/19 15:22:31;;;;;;;0.68;0.30;;;19.70;96.70;;;;;;4949183;28;20039;-71
2023/05/19 15:25:00;;;;;;;0.20;0.10;;;19.70;96.70;;;;;;4958821;28;20051;-71
2023/05/19 15:27:28;;;;;;;1.48;0.30;;;19.60;96.70;;;;;;4966480;28;20051;-70
2023/05/19 15:29:57;;;;;;;0.65;0.20;;;19.60;96.70;;;;;;4968568;28;20600;-70
2023/05/19 15:32:25;;;;;;;1.00;0.20;;;19.60;96.70;;;;;;4970097;28;20043;-70
2023/05/19 15:34:53;;;;;;;0.88;0.50;;;19.60;96.70;;;;;;4967472;28;20042;-70
2023/05/19 15:37:21;;;;;;;1.33;0.30;;;19.50;96.70;;;;;;4946500;28;20102;-71
2023/05/19 15:39:50;;;;;;;1.00;0.45;;;19.50;96.70;;;;;;4966685;28;20117;-70
2023/05/19 15:42:20;;;;;;;1.35;0.38;;;19.50;96.70;;;;;;4966160;28;20053;-70
2023/05/19 15:44:48;;;;;;;1.67;0.50;;;19.50;96.70;;;;;;4966904;28;20050;-71
2023/05/19 15:47:16;;;;;;;3.67;0.90;;;19.40;96.70;;;;;;4959313;28;20058;-70
2023/05/19 15:49:44;;;;;;;1.77;0.50;;;19.40;96.70;;;;;;4975158;28;20069;-70
2023/05/19 15:52:12;;;;;;;1.65;0.63;;;19.30;96.70;;;;;;4945784;28;20051;-71